sensor_id;sensor_type;location;lat;lon;timestamp;P1;durP1;ratioP1;P2;durP2;ratioP2
29294;SDS011;16305;48.566;8.846;2023-01-29T00:01:01;19.70;;;11.70;;
29294;SDS011;16305;48.566;8.846;2023-01-29T00:03:28;18.60;;;11.17;;
29294;SDS011;16305;48.566;8.846;2023-01-29T00:05:53;13.23;;;7.93;;
29294;SDS011;16305;48.566;8.846;2023-01-29T00:08:19;19.20;;;11.70;;
29294;SDS011;16305;48.566;8.846;2023-01-29T00:10:44;16.63;;;10.90;;
29294;SDS011;16305;48.566;8.846;2023-01-29T00:13:10;19.57;;;10.80;;
29294;SDS011;16305;48.566;8.846;2023-01-29T00:15:35;18.57;;;11.90;;
29294;SDS011;16305;48.566;8.846;2023-01-29T00:18:01;18.63;;;11.90;;
29294;SDS011;16305;48.566;8.846;2023-01-29T00:20:27;16.53;;;10.10;;
29294;SDS011;16305;48.566;8.846;2023-01-29T00:22:52;9.23;;;5.77;;
29294;SDS011;16305;48.566;8.846;2023-01-29T00:25:17;16.33;;;9.77;;
29294;SDS011;16305;48.566;8.846;2023-01-29T00:27:43;9.87;;;6.40;;
29294;SDS011;16305;48.566;8.846;2023-01-29T00:30:09;12.53;;;8.27;;
29294;SDS011;16305;48.566;8.846;2023-01-29T00:32:38;14.17;;;9.00;;
29294;SDS011;16305;48.566;8.846;2023-01-29T00:35:05;17.33;;;10.70;;
29294;SDS011;16305;48.566;8.846;2023-01-29T00:37:31;22.63;;;11.30;;
29294;SDS011;16305;48.566;8.846;2023-01-29T00:39:57;18.63;;;11.93;;
29294;SDS011;16305;48.566;8.846;2023-01-29T00:42:22;16.00;;;11.33;;
29294;SDS011;16305;48.566;8.846;2023-01-29T00:45:07;13.13;;;7.37;;
29294;SDS011;16305;48.566;8.846;2023-01-29T00:47:34;18.00;;;11.13;;
29294;SDS011;16305;48.566;8.846;2023-01-29T00:50:00;18.93;;;12.30;;
29294;SDS011;16305;48.566;8.846;2023-01-29T00:52:27;18.30;;;12.00;;
29294;SDS011;16305;48.566;8.846;2023-01-29T00:54:54;18.47;;;10.60;;
29294;SDS011;16305;48.566;8.846;2023-01-29T00:57:22;18.63;;;11.20;;
29294;SDS011;16305;48.566;8.846;2023-01-29T00:59:48;14.07;;;8.40;;
29294;SDS011;16305;48.566;8.846;2023-01-29T01:02:14;16.20;;;10.43;;
29294;SDS011;16305;48.566;8.846;2023-01-29T01:04:58;21.30;;;11.90;;
29294;SDS011;16305;48.566;8.846;2023-01-29T01:07:27;18.60;;;11.33;;
29294;SDS011;16305;48.566;8.846;2023-01-29T01:09:53;19.37;;;11.63;;
29294;SDS011;16305;48.566;8.846;2023-01-29T01:12:37;18.20;;;11.63;;
29294;SDS011;16305;48.566;8.846;2023-01-29T01:15:02;18.17;;;11.70;;
29294;SDS011;16305;48.566;8.846;2023-01-29T01:17:28;19.43;;;12.50;;
29294;SDS011;16305;48.566;8.846;2023-01-29T01:19:54;16.93;;;11.00;;
29294;SDS011;16305;48.566;8.846;2023-01-29T01:22:19;17.20;;;9.43;;
29294;SDS011;16305;48.566;8.846;2023-01-29T01:24:45;20.40;;;11.57;;
29294;SDS011;16305;48.566;8.846;2023-01-29T01:27:11;16.67;;;10.87;;
29294;SDS011;16305;48.566;8.846;2023-01-29T01:29:37;17.03;;;11.37;;
29294;SDS011;16305;48.566;8.846;2023-01-29T01:32:03;14.33;;;9.40;;
29294;SDS011;16305;48.566;8.846;2023-01-29T01:34:29;14.57;;;8.93;;
29294;SDS011;16305;48.566;8.846;2023-01-29T01:36:54;16.43;;;10.33;;
29294;SDS011;16305;48.566;8.846;2023-01-29T01:39:20;14.70;;;9.23;;
29294;SDS011;16305;48.566;8.846;2023-01-29T01:41:46;17.27;;;10.07;;
29294;SDS011;16305;48.566;8.846;2023-01-29T01:47:18;19.17;;;11.03;;
29294;SDS011;16305;48.566;8.846;2023-01-29T01:49:47;17.67;;;11.23;;
29294;SDS011;16305;48.566;8.846;2023-01-29T01:52:13;14.53;;;9.90;;
29294;SDS011;16305;48.566;8.846;2023-01-29T01:54:40;15.70;;;9.43;;
29294;SDS011;16305;48.566;8.846;2023-01-29T01:57:09;18.60;;;10.37;;
29294;SDS011;16305;48.566;8.846;2023-01-29T01:59:40;13.83;;;8.30;;
29294;SDS011;16305;48.566;8.846;2023-01-29T02:02:10;15.97;;;10.37;;
29294;SDS011;16305;48.566;8.846;2023-01-29T02:04:54;13.43;;;9.00;;
29294;SDS011;16305;48.566;8.846;2023-01-29T02:07:45;10.27;;;7.70;;
29294;SDS011;16305;48.566;8.846;2023-01-29T02:10:34;15.73;;;9.50;;
29294;SDS011;16305;48.566;8.846;2023-01-29T02:13:04;14.87;;;10.27;;
29294;SDS011;16305;48.566;8.846;2023-01-29T02:15:31;16.10;;;10.37;;
29294;SDS011;16305;48.566;8.846;2023-01-29T02:17:57;14.40;;;10.13;;
29294;SDS011;16305;48.566;8.846;2023-01-29T02:20:24;15.67;;;10.03;;
29294;SDS011;16305;48.566;8.846;2023-01-29T02:25:58;16.27;;;9.17;;
29294;SDS011;16305;48.566;8.846;2023-01-29T02:29:00;12.27;;;7.90;;
29294;SDS011;16305;48.566;8.846;2023-01-29T02:31:49;10.37;;;6.63;;
29294;SDS011;16305;48.566;8.846;2023-01-29T02:37:32;4.57;;;3.53;;
29294;SDS011;16305;48.566;8.846;2023-01-29T02:40:13;12.63;;;7.93;;
29294;SDS011;16305;48.566;8.846;2023-01-29T02:43:05;9.43;;;7.00;;
29294;SDS011;16305;48.566;8.846;2023-01-29T02:48:24;11.43;;;7.73;;
29294;SDS011;16305;48.566;8.846;2023-01-29T02:51:04;18.90;;;9.30;;
29294;SDS011;16305;48.566;8.846;2023-01-29T02:53:36;14.30;;;8.93;;
29294;SDS011;16305;48.566;8.846;2023-01-29T02:56:07;12.90;;;9.00;;
29294;SDS011;16305;48.566;8.846;2023-01-29T02:58:38;18.10;;;9.27;;
29294;SDS011;16305;48.566;8.846;2023-01-29T03:01:15;15.50;;;9.23;;
29294;SDS011;16305;48.566;8.846;2023-01-29T03:03:47;14.43;;;9.77;;
29294;SDS011;16305;48.566;8.846;2023-01-29T03:06:17;13.07;;;9.57;;
29294;SDS011;16305;48.566;8.846;2023-01-29T03:09:09;15.23;;;8.70;;
29294;SDS011;16305;48.566;8.846;2023-01-29T03:11:48;13.37;;;8.57;;
29294;SDS011;16305;48.566;8.846;2023-01-29T03:14:23;11.30;;;8.03;;
29294;SDS011;16305;48.566;8.846;2023-01-29T03:17:15;12.17;;;8.93;;
29294;SDS011;16305;48.566;8.846;2023-01-29T03:19:40;13.17;;;8.70;;
29294;SDS011;16305;48.566;8.846;2023-01-29T03:22:10;11.43;;;7.70;;
29294;SDS011;16305;48.566;8.846;2023-01-29T03:24:50;11.57;;;8.30;;
29294;SDS011;16305;48.566;8.846;2023-01-29T03:27:43;13.57;;;8.77;;
29294;SDS011;16305;48.566;8.846;2023-01-29T03:30:32;11.13;;;7.90;;
29294;SDS011;16305;48.566;8.846;2023-01-29T03:33:19;10.93;;;8.17;;
29294;SDS011;16305;48.566;8.846;2023-01-29T03:35:58;11.37;;;7.07;;
29294;SDS011;16305;48.566;8.846;2023-01-29T03:38:28;11.13;;;7.60;;
29294;SDS011;16305;48.566;8.846;2023-01-29T03:41:07;11.30;;;7.63;;
29294;SDS011;16305;48.566;8.846;2023-01-29T03:43:42;10.53;;;7.60;;
29294;SDS011;16305;48.566;8.846;2023-01-29T03:46:20;10.73;;;7.43;;
29294;SDS011;16305;48.566;8.846;2023-01-29T03:54:14;9.77;;;7.53;;
29294;SDS011;16305;48.566;8.846;2023-01-29T03:56:54;11.67;;;7.20;;
29294;SDS011;16305;48.566;8.846;2023-01-29T03:59:24;9.17;;;7.17;;
29294;SDS011;16305;48.566;8.846;2023-01-29T04:02:12;11.50;;;8.23;;
29294;SDS011;16305;48.566;8.846;2023-01-29T04:04:51;12.47;;;8.40;;
29294;SDS011;16305;48.566;8.846;2023-01-29T04:07:22;10.07;;;7.43;;
29294;SDS011;16305;48.566;8.846;2023-01-29T04:09:50;10.43;;;7.50;;
29294;SDS011;16305;48.566;8.846;2023-01-29T04:12:29;12.13;;;8.40;;
29294;SDS011;16305;48.566;8.846;2023-01-29T04:15:01;11.27;;;8.40;;
29294;SDS011;16305;48.566;8.846;2023-01-29T04:17:33;9.47;;;6.77;;
29294;SDS011;16305;48.566;8.846;2023-01-29T04:20:03;14.93;;;9.07;;
29294;SDS011;16305;48.566;8.846;2023-01-29T04:22:33;9.90;;;7.40;;
29294;SDS011;16305;48.566;8.846;2023-01-29T04:25:01;11.77;;;7.67;;
29294;SDS011;16305;48.566;8.846;2023-01-29T04:35:21;12.07;;;8.57;;
29294;SDS011;16305;48.566;8.846;2023-01-29T04:38:02;11.53;;;8.40;;
29294;SDS011;16305;48.566;8.846;2023-01-29T04:40:48;11.57;;;8.00;;
29294;SDS011;16305;48.566;8.846;2023-01-29T04:43:20;11.73;;;8.23;;
29294;SDS011;16305;48.566;8.846;2023-01-29T04:46:08;11.77;;;8.63;;
29294;SDS011;16305;48.566;8.846;2023-01-29T04:48:44;11.53;;;8.30;;
29294;SDS011;16305;48.566;8.846;2023-01-29T04:51:16;11.43;;;8.23;;
29294;SDS011;16305;48.566;8.846;2023-01-29T04:53:56;12.17;;;8.40;;
29294;SDS011;16305;48.566;8.846;2023-01-29T04:56:50;12.87;;;8.40;;
29294;SDS011;16305;48.566;8.846;2023-01-29T04:59:50;10.30;;;8.17;;
29294;SDS011;16305;48.566;8.846;2023-01-29T05:02:16;10.87;;;8.10;;
29294;SDS011;16305;48.566;8.846;2023-01-29T05:04:46;11.77;;;8.73;;
29294;SDS011;16305;48.566;8.846;2023-01-29T05:07:13;11.93;;;8.37;;
29294;SDS011;16305;48.566;8.846;2023-01-29T05:09:39;12.87;;;9.30;;
29294;SDS011;16305;48.566;8.846;2023-01-29T05:12:08;10.63;;;8.00;;
29294;SDS011;16305;48.566;8.846;2023-01-29T05:14:36;10.57;;;8.27;;
29294;SDS011;16305;48.566;8.846;2023-01-29T05:17:04;12.30;;;7.93;;
29294;SDS011;16305;48.566;8.846;2023-01-29T05:19:35;11.50;;;8.83;;
29294;SDS011;16305;48.566;8.846;2023-01-29T05:22:01;10.53;;;7.83;;
29294;SDS011;16305;48.566;8.846;2023-01-29T05:24:29;11.10;;;8.03;;
29294;SDS011;16305;48.566;8.846;2023-01-29T05:26:54;13.27;;;8.83;;
29294;SDS011;16305;48.566;8.846;2023-01-29T05:29:39;11.63;;;8.30;;
29294;SDS011;16305;48.566;8.846;2023-01-29T05:32:09;10.63;;;8.60;;
29294;SDS011;16305;48.566;8.846;2023-01-29T05:34:34;10.97;;;8.20;;
29294;SDS011;16305;48.566;8.846;2023-01-29T05:37:00;12.10;;;8.20;;
29294;SDS011;16305;48.566;8.846;2023-01-29T05:39:26;12.00;;;9.10;;
29294;SDS011;16305;48.566;8.846;2023-01-29T05:41:51;10.87;;;8.47;;
29294;SDS011;16305;48.566;8.846;2023-01-29T05:44:17;11.63;;;8.83;;
29294;SDS011;16305;48.566;8.846;2023-01-29T05:46:42;14.33;;;9.30;;
29294;SDS011;16305;48.566;8.846;2023-01-29T05:49:08;11.67;;;7.90;;
29294;SDS011;16305;48.566;8.846;2023-01-29T05:51:34;13.30;;;9.27;;
29294;SDS011;16305;48.566;8.846;2023-01-29T05:54:00;17.43;;;10.20;;
29294;SDS011;16305;48.566;8.846;2023-01-29T05:56:25;12.23;;;8.60;;
29294;SDS011;16305;48.566;8.846;2023-01-29T05:58:51;12.70;;;9.13;;
29294;SDS011;16305;48.566;8.846;2023-01-29T06:01:18;12.37;;;8.40;;
29294;SDS011;16305;48.566;8.846;2023-01-29T06:03:45;11.67;;;8.73;;
29294;SDS011;16305;48.566;8.846;2023-01-29T06:06:11;13.93;;;9.73;;
29294;SDS011;16305;48.566;8.846;2023-01-29T06:08:37;13.63;;;9.93;;
29294;SDS011;16305;48.566;8.846;2023-01-29T06:11:03;17.50;;;11.33;;
29294;SDS011;16305;48.566;8.846;2023-01-29T06:13:32;14.27;;;10.20;;
29294;SDS011;16305;48.566;8.846;2023-01-29T06:15:58;16.13;;;11.53;;
29294;SDS011;16305;48.566;8.846;2023-01-29T06:18:23;15.57;;;11.20;;
29294;SDS011;16305;48.566;8.846;2023-01-29T06:20:49;15.93;;;10.33;;
29294;SDS011;16305;48.566;8.846;2023-01-29T06:23:14;13.20;;;10.27;;
29294;SDS011;16305;48.566;8.846;2023-01-29T06:25:40;16.30;;;10.57;;
29294;SDS011;16305;48.566;8.846;2023-01-29T06:28:05;13.03;;;10.00;;
29294;SDS011;16305;48.566;8.846;2023-01-29T06:30:31;12.57;;;9.47;;
29294;SDS011;16305;48.566;8.846;2023-01-29T06:32:57;14.13;;;9.50;;
29294;SDS011;16305;48.566;8.846;2023-01-29T06:35:25;12.63;;;8.83;;
29294;SDS011;16305;48.566;8.846;2023-01-29T06:37:51;12.73;;;9.53;;
29294;SDS011;16305;48.566;8.846;2023-01-29T06:40:16;13.37;;;9.47;;
29294;SDS011;16305;48.566;8.846;2023-01-29T06:42:42;11.70;;;8.97;;
29294;SDS011;16305;48.566;8.846;2023-01-29T06:45:08;15.07;;;10.27;;
29294;SDS011;16305;48.566;8.846;2023-01-29T06:47:34;14.00;;;8.80;;
29294;SDS011;16305;48.566;8.846;2023-01-29T06:50:00;11.53;;;9.03;;
29294;SDS011;16305;48.566;8.846;2023-01-29T06:52:26;14.67;;;10.23;;
29294;SDS011;16305;48.566;8.846;2023-01-29T06:54:53;17.83;;;11.37;;
29294;SDS011;16305;48.566;8.846;2023-01-29T06:57:19;16.40;;;11.97;;
29294;SDS011;16305;48.566;8.846;2023-01-29T06:59:44;17.57;;;11.63;;
29294;SDS011;16305;48.566;8.846;2023-01-29T07:02:10;16.97;;;11.90;;
29294;SDS011;16305;48.566;8.846;2023-01-29T07:04:36;18.10;;;11.77;;
29294;SDS011;16305;48.566;8.846;2023-01-29T07:07:01;26.00;;;15.03;;
29294;SDS011;16305;48.566;8.846;2023-01-29T07:09:27;18.37;;;13.37;;
29294;SDS011;16305;48.566;8.846;2023-01-29T07:11:53;21.37;;;13.67;;
29294;SDS011;16305;48.566;8.846;2023-01-29T07:14:19;19.30;;;12.50;;
29294;SDS011;16305;48.566;8.846;2023-01-29T07:16:44;17.93;;;11.90;;
29294;SDS011;16305;48.566;8.846;2023-01-29T07:19:10;14.70;;;10.47;;
29294;SDS011;16305;48.566;8.846;2023-01-29T07:21:35;13.03;;;10.47;;
29294;SDS011;16305;48.566;8.846;2023-01-29T07:24:01;13.73;;;10.23;;
29294;SDS011;16305;48.566;8.846;2023-01-29T07:26:27;14.53;;;10.73;;
29294;SDS011;16305;48.566;8.846;2023-01-29T07:28:53;14.80;;;10.63;;
29294;SDS011;16305;48.566;8.846;2023-01-29T07:31:18;14.80;;;10.70;;
29294;SDS011;16305;48.566;8.846;2023-01-29T07:33:44;12.33;;;9.40;;
29294;SDS011;16305;48.566;8.846;2023-01-29T07:36:10;11.90;;;9.60;;
29294;SDS011;16305;48.566;8.846;2023-01-29T07:38:36;16.73;;;10.23;;
29294;SDS011;16305;48.566;8.846;2023-01-29T07:41:02;15.30;;;10.60;;
29294;SDS011;16305;48.566;8.846;2023-01-29T07:43:27;16.33;;;11.30;;
29294;SDS011;16305;48.566;8.846;2023-01-29T07:45:54;16.87;;;12.10;;
29294;SDS011;16305;48.566;8.846;2023-01-29T07:48:19;18.50;;;12.80;;
29294;SDS011;16305;48.566;8.846;2023-01-29T07:50:52;17.00;;;12.17;;
29294;SDS011;16305;48.566;8.846;2023-01-29T07:53:19;15.47;;;11.30;;
29294;SDS011;16305;48.566;8.846;2023-01-29T07:55:45;18.17;;;13.33;;
29294;SDS011;16305;48.566;8.846;2023-01-29T07:58:10;20.47;;;12.90;;
29294;SDS011;16305;48.566;8.846;2023-01-29T08:00:36;17.30;;;12.20;;
29294;SDS011;16305;48.566;8.846;2023-01-29T08:03:12;17.33;;;11.43;;
29294;SDS011;16305;48.566;8.846;2023-01-29T08:05:40;24.03;;;15.40;;
29294;SDS011;16305;48.566;8.846;2023-01-29T08:08:06;20.17;;;12.37;;
29294;SDS011;16305;48.566;8.846;2023-01-29T08:10:32;17.77;;;12.13;;
29294;SDS011;16305;48.566;8.846;2023-01-29T08:12:58;14.77;;;11.37;;
29294;SDS011;16305;48.566;8.846;2023-01-29T08:15:25;17.40;;;11.40;;
29294;SDS011;16305;48.566;8.846;2023-01-29T08:17:52;19.13;;;12.63;;
29294;SDS011;16305;48.566;8.846;2023-01-29T08:20:18;21.70;;;13.83;;
29294;SDS011;16305;48.566;8.846;2023-01-29T08:22:45;18.10;;;12.73;;
29294;SDS011;16305;48.566;8.846;2023-01-29T08:25:11;17.67;;;12.40;;
29294;SDS011;16305;48.566;8.846;2023-01-29T08:27:37;16.83;;;12.03;;
29294;SDS011;16305;48.566;8.846;2023-01-29T08:30:03;15.40;;;11.47;;
29294;SDS011;16305;48.566;8.846;2023-01-29T08:32:29;16.50;;;11.70;;
29294;SDS011;16305;48.566;8.846;2023-01-29T08:34:55;17.97;;;12.23;;
29294;SDS011;16305;48.566;8.846;2023-01-29T08:37:20;15.90;;;11.13;;
29294;SDS011;16305;48.566;8.846;2023-01-29T08:39:46;15.70;;;11.07;;
29294;SDS011;16305;48.566;8.846;2023-01-29T08:42:11;16.30;;;10.90;;
29294;SDS011;16305;48.566;8.846;2023-01-29T08:44:37;15.90;;;11.07;;
29294;SDS011;16305;48.566;8.846;2023-01-29T08:47:03;16.80;;;10.20;;
29294;SDS011;16305;48.566;8.846;2023-01-29T08:49:28;13.87;;;10.57;;
29294;SDS011;16305;48.566;8.846;2023-01-29T08:51:54;14.60;;;10.80;;
29294;SDS011;16305;48.566;8.846;2023-01-29T08:54:21;15.47;;;10.53;;
29294;SDS011;16305;48.566;8.846;2023-01-29T08:56:47;17.20;;;11.10;;
29294;SDS011;16305;48.566;8.846;2023-01-29T08:59:12;17.30;;;11.30;;
29294;SDS011;16305;48.566;8.846;2023-01-29T09:01:38;15.33;;;11.57;;
29294;SDS011;16305;48.566;8.846;2023-01-29T09:04:04;18.27;;;12.07;;
29294;SDS011;16305;48.566;8.846;2023-01-29T09:06:29;17.83;;;12.27;;
29294;SDS011;16305;48.566;8.846;2023-01-29T09:08:55;20.57;;;12.63;;
29294;SDS011;16305;48.566;8.846;2023-01-29T09:11:20;15.80;;;11.23;;
29294;SDS011;16305;48.566;8.846;2023-01-29T09:13:46;17.10;;;11.57;;
29294;SDS011;16305;48.566;8.846;2023-01-29T09:16:12;16.27;;;11.43;;
29294;SDS011;16305;48.566;8.846;2023-01-29T09:18:37;16.70;;;11.17;;
29294;SDS011;16305;48.566;8.846;2023-01-29T09:21:03;15.07;;;10.70;;
29294;SDS011;16305;48.566;8.846;2023-01-29T09:23:29;15.27;;;10.80;;
29294;SDS011;16305;48.566;8.846;2023-01-29T09:25:55;17.43;;;11.70;;
29294;SDS011;16305;48.566;8.846;2023-01-29T09:28:21;16.23;;;11.63;;
29294;SDS011;16305;48.566;8.846;2023-01-29T09:30:47;15.00;;;10.77;;
29294;SDS011;16305;48.566;8.846;2023-01-29T09:33:12;14.40;;;10.70;;
29294;SDS011;16305;48.566;8.846;2023-01-29T09:35:41;16.77;;;11.17;;
29294;SDS011;16305;48.566;8.846;2023-01-29T09:38:09;16.30;;;11.53;;
29294;SDS011;16305;48.566;8.846;2023-01-29T09:43:26;15.20;;;10.93;;
29294;SDS011;16305;48.566;8.846;2023-01-29T09:46:19;22.33;;;13.23;;
29294;SDS011;16305;48.566;8.846;2023-01-29T09:49:23;22.20;;;14.03;;
29294;SDS011;16305;48.566;8.846;2023-01-29T09:51:53;15.13;;;11.30;;
29294;SDS011;16305;48.566;8.846;2023-01-29T09:54:34;19.53;;;12.30;;
29294;SDS011;16305;48.566;8.846;2023-01-29T09:57:09;18.20;;;10.70;;
29294;SDS011;16305;48.566;8.846;2023-01-29T09:59:42;17.90;;;11.93;;
29294;SDS011;16305;48.566;8.846;2023-01-29T10:02:25;13.50;;;10.00;;
29294;SDS011;16305;48.566;8.846;2023-01-29T10:05:01;14.93;;;10.50;;
29294;SDS011;16305;48.566;8.846;2023-01-29T10:15:52;18.37;;;12.47;;
29294;SDS011;16305;48.566;8.846;2023-01-29T10:23:37;16.77;;;11.80;;
29294;SDS011;16305;48.566;8.846;2023-01-29T10:26:10;19.90;;;13.70;;
29294;SDS011;16305;48.566;8.846;2023-01-29T10:28:41;18.57;;;13.43;;
29294;SDS011;16305;48.566;8.846;2023-01-29T10:33:55;17.07;;;12.00;;
29294;SDS011;16305;48.566;8.846;2023-01-29T10:36:39;38.47;;;17.73;;
29294;SDS011;16305;48.566;8.846;2023-01-29T10:39:29;21.13;;;13.70;;
29294;SDS011;16305;48.566;8.846;2023-01-29T10:52:32;20.80;;;14.57;;
29294;SDS011;16305;48.566;8.846;2023-01-29T10:55:02;14.30;;;10.37;;
29294;SDS011;16305;48.566;8.846;2023-01-29T11:00:26;26.43;;;15.13;;
29294;SDS011;16305;48.566;8.846;2023-01-29T11:02:56;15.37;;;10.40;;
29294;SDS011;16305;48.566;8.846;2023-01-29T11:05:48;14.87;;;10.03;;
29294;SDS011;16305;48.566;8.846;2023-01-29T11:08:27;17.67;;;10.33;;
29294;SDS011;16305;48.566;8.846;2023-01-29T11:11:00;14.23;;;9.73;;
29294;SDS011;16305;48.566;8.846;2023-01-29T11:13:34;17.93;;;11.57;;
29294;SDS011;16305;48.566;8.846;2023-01-29T11:16:04;15.67;;;10.53;;
29294;SDS011;16305;48.566;8.846;2023-01-29T11:18:47;16.30;;;10.83;;
29294;SDS011;16305;48.566;8.846;2023-01-29T11:21:13;16.77;;;10.30;;
29294;SDS011;16305;48.566;8.846;2023-01-29T11:23:40;15.10;;;9.80;;
29294;SDS011;16305;48.566;8.846;2023-01-29T11:26:05;12.13;;;9.23;;
29294;SDS011;16305;48.566;8.846;2023-01-29T11:28:39;15.00;;;9.73;;
29294;SDS011;16305;48.566;8.846;2023-01-29T11:31:25;13.07;;;9.10;;
29294;SDS011;16305;48.566;8.846;2023-01-29T11:34:02;13.33;;;9.60;;
29294;SDS011;16305;48.566;8.846;2023-01-29T11:36:37;17.43;;;11.43;;
29294;SDS011;16305;48.566;8.846;2023-01-29T11:39:11;14.17;;;10.10;;
29294;SDS011;16305;48.566;8.846;2023-01-29T11:41:58;11.97;;;9.33;;
29294;SDS011;16305;48.566;8.846;2023-01-29T11:49:56;13.70;;;10.07;;
29294;SDS011;16305;48.566;8.846;2023-01-29T11:52:25;13.60;;;10.27;;
29294;SDS011;16305;48.566;8.846;2023-01-29T11:54:58;14.10;;;10.27;;
29294;SDS011;16305;48.566;8.846;2023-01-29T11:57:37;13.23;;;9.10;;
29294;SDS011;16305;48.566;8.846;2023-01-29T12:02:42;14.03;;;10.23;;
29294;SDS011;16305;48.566;8.846;2023-01-29T12:05:16;25.17;;;13.87;;
29294;SDS011;16305;48.566;8.846;2023-01-29T12:07:44;15.73;;;10.23;;
29294;SDS011;16305;48.566;8.846;2023-01-29T12:10:49;14.60;;;10.07;;
29294;SDS011;16305;48.566;8.846;2023-01-29T12:15:40;15.17;;;11.47;;
29294;SDS011;16305;48.566;8.846;2023-01-29T12:18:15;15.73;;;11.40;;
29294;SDS011;16305;48.566;8.846;2023-01-29T12:21:01;14.63;;;10.83;;
29294;SDS011;16305;48.566;8.846;2023-01-29T12:32:03;15.37;;;10.13;;
29294;SDS011;16305;48.566;8.846;2023-01-29T12:35:10;16.90;;;10.90;;
29294;SDS011;16305;48.566;8.846;2023-01-29T12:40:15;15.90;;;11.27;;
29294;SDS011;16305;48.566;8.846;2023-01-29T12:42:43;15.80;;;11.17;;
29294;SDS011;16305;48.566;8.846;2023-01-29T12:45:17;13.57;;;10.17;;
29294;SDS011;16305;48.566;8.846;2023-01-29T12:47:55;13.83;;;9.70;;
29294;SDS011;16305;48.566;8.846;2023-01-29T12:50:26;21.20;;;14.13;;
29294;SDS011;16305;48.566;8.846;2023-01-29T12:53:01;13.97;;;10.60;;
29294;SDS011;16305;48.566;8.846;2023-01-29T12:58:13;14.57;;;10.27;;
29294;SDS011;16305;48.566;8.846;2023-01-29T13:00:42;15.50;;;11.47;;
29294;SDS011;16305;48.566;8.846;2023-01-29T13:03:16;15.80;;;10.53;;
29294;SDS011;16305;48.566;8.846;2023-01-29T13:06:09;16.17;;;11.67;;
29294;SDS011;16305;48.566;8.846;2023-01-29T13:08:49;12.83;;;9.70;;
29294;SDS011;16305;48.566;8.846;2023-01-29T13:11:20;14.30;;;10.03;;
29294;SDS011;16305;48.566;8.846;2023-01-29T13:16:27;13.77;;;10.07;;
29294;SDS011;16305;48.566;8.846;2023-01-29T13:19:04;12.37;;;9.53;;
29294;SDS011;16305;48.566;8.846;2023-01-29T13:21:37;14.00;;;10.03;;
29294;SDS011;16305;48.566;8.846;2023-01-29T13:24:10;12.83;;;10.57;;
29294;SDS011;16305;48.566;8.846;2023-01-29T13:26:38;14.67;;;10.67;;
29294;SDS011;16305;48.566;8.846;2023-01-29T13:29:05;18.57;;;11.77;;
29294;SDS011;16305;48.566;8.846;2023-01-29T13:31:34;12.63;;;9.33;;
29294;SDS011;16305;48.566;8.846;2023-01-29T13:34:07;19.50;;;13.10;;
29294;SDS011;16305;48.566;8.846;2023-01-29T13:36:39;14.83;;;11.23;;
29294;SDS011;16305;48.566;8.846;2023-01-29T13:39:22;15.57;;;11.27;;
29294;SDS011;16305;48.566;8.846;2023-01-29T13:41:54;14.83;;;10.00;;
29294;SDS011;16305;48.566;8.846;2023-01-29T13:44:25;14.13;;;9.97;;
29294;SDS011;16305;48.566;8.846;2023-01-29T13:49:27;13.60;;;9.40;;
29294;SDS011;16305;48.566;8.846;2023-01-29T13:51:57;16.40;;;11.60;;
29294;SDS011;16305;48.566;8.846;2023-01-29T13:54:37;14.50;;;10.57;;
29294;SDS011;16305;48.566;8.846;2023-01-29T13:57:03;12.73;;;9.50;;
29294;SDS011;16305;48.566;8.846;2023-01-29T14:02:26;21.80;;;12.63;;
29294;SDS011;16305;48.566;8.846;2023-01-29T14:05:31;16.70;;;11.23;;
29294;SDS011;16305;48.566;8.846;2023-01-29T14:07:53;14.17;;;9.73;;
29294;SDS011;16305;48.566;8.846;2023-01-29T14:10:21;11.93;;;9.30;;
29294;SDS011;16305;48.566;8.846;2023-01-29T14:12:51;13.53;;;9.73;;
29294;SDS011;16305;48.566;8.846;2023-01-29T14:23:54;13.23;;;10.13;;
29294;SDS011;16305;48.566;8.846;2023-01-29T14:26:05;12.53;;;9.77;;
29294;SDS011;16305;48.566;8.846;2023-01-29T14:28:44;13.77;;;9.17;;
29294;SDS011;16305;48.566;8.846;2023-01-29T14:34:02;12.83;;;10.37;;
29294;SDS011;16305;48.566;8.846;2023-01-29T14:36:38;12.17;;;9.40;;
29294;SDS011;16305;48.566;8.846;2023-01-29T14:39:05;13.03;;;10.33;;
29294;SDS011;16305;48.566;8.846;2023-01-29T14:41:44;15.37;;;10.27;;
29294;SDS011;16305;48.566;8.846;2023-01-29T14:49:55;14.73;;;10.33;;
29294;SDS011;16305;48.566;8.846;2023-01-29T14:52:23;14.90;;;10.83;;
29294;SDS011;16305;48.566;8.846;2023-01-29T14:54:58;16.90;;;11.87;;
29294;SDS011;16305;48.566;8.846;2023-01-29T14:57:26;16.43;;;11.07;;
29294;SDS011;16305;48.566;8.846;2023-01-29T15:00:04;14.13;;;10.10;;
29294;SDS011;16305;48.566;8.846;2023-01-29T15:02:37;13.00;;;10.13;;
29294;SDS011;16305;48.566;8.846;2023-01-29T15:05:08;17.40;;;10.63;;
29294;SDS011;16305;48.566;8.846;2023-01-29T15:07:43;14.60;;;9.97;;
29294;SDS011;16305;48.566;8.846;2023-01-29T15:10:17;15.57;;;10.60;;
29294;SDS011;16305;48.566;8.846;2023-01-29T15:13:07;15.50;;;11.37;;
29294;SDS011;16305;48.566;8.846;2023-01-29T15:15:39;17.80;;;12.50;;
29294;SDS011;16305;48.566;8.846;2023-01-29T15:18:30;27.40;;;16.63;;
29294;SDS011;16305;48.566;8.846;2023-01-29T15:21:14;24.13;;;16.17;;
29294;SDS011;16305;48.566;8.846;2023-01-29T15:23:42;41.13;;;21.17;;
29294;SDS011;16305;48.566;8.846;2023-01-29T15:26:26;28.23;;;17.27;;
29294;SDS011;16305;48.566;8.846;2023-01-29T15:28:55;21.53;;;14.83;;
29294;SDS011;16305;48.566;8.846;2023-01-29T15:31:22;20.63;;;13.10;;
29294;SDS011;16305;48.566;8.846;2023-01-29T15:33:50;17.83;;;11.83;;
29294;SDS011;16305;48.566;8.846;2023-01-29T15:36:19;15.17;;;10.80;;
29294;SDS011;16305;48.566;8.846;2023-01-29T15:41:33;16.30;;;12.20;;
29294;SDS011;16305;48.566;8.846;2023-01-29T15:43:59;12.87;;;9.80;;
29294;SDS011;16305;48.566;8.846;2023-01-29T15:46:29;12.47;;;9.33;;
29294;SDS011;16305;48.566;8.846;2023-01-29T15:49:10;13.37;;;9.73;;
29294;SDS011;16305;48.566;8.846;2023-01-29T15:51:43;17.00;;;11.87;;
29294;SDS011;16305;48.566;8.846;2023-01-29T15:54:12;16.53;;;10.60;;
29294;SDS011;16305;48.566;8.846;2023-01-29T15:56:40;16.00;;;10.50;;
29294;SDS011;16305;48.566;8.846;2023-01-29T15:59:13;15.40;;;11.10;;
29294;SDS011;16305;48.566;8.846;2023-01-29T16:01:45;20.37;;;13.57;;
29294;SDS011;16305;48.566;8.846;2023-01-29T16:04:32;18.93;;;12.20;;
29294;SDS011;16305;48.566;8.846;2023-01-29T16:06:57;25.13;;;15.47;;
29294;SDS011;16305;48.566;8.846;2023-01-29T16:09:24;23.87;;;14.90;;
29294;SDS011;16305;48.566;8.846;2023-01-29T16:11:52;24.30;;;14.47;;
29294;SDS011;16305;48.566;8.846;2023-01-29T16:14:19;21.93;;;13.80;;
29294;SDS011;16305;48.566;8.846;2023-01-29T16:16:49;26.30;;;15.03;;
29294;SDS011;16305;48.566;8.846;2023-01-29T16:19:21;44.80;;;23.37;;
29294;SDS011;16305;48.566;8.846;2023-01-29T16:21:53;88.37;;;42.40;;
29294;SDS011;16305;48.566;8.846;2023-01-29T16:24:23;36.63;;;21.50;;
29294;SDS011;16305;48.566;8.846;2023-01-29T16:26:50;28.37;;;18.77;;
29294;SDS011;16305;48.566;8.846;2023-01-29T16:29:22;26.83;;;18.80;;
29294;SDS011;16305;48.566;8.846;2023-01-29T16:31:54;19.23;;;13.53;;
29294;SDS011;16305;48.566;8.846;2023-01-29T16:34:31;20.33;;;13.03;;
29294;SDS011;16305;48.566;8.846;2023-01-29T16:37:14;18.50;;;12.27;;
29294;SDS011;16305;48.566;8.846;2023-01-29T16:39:48;20.27;;;12.47;;